sensor_id;sensor_type;location;lat;lon;timestamp;P1;durP1;ratioP1;P2;durP2;ratioP2
2620;SDS011;1320;48.128;11.592;2023-07-08T00:01:11;10.80;;;6.10;;
2620;SDS011;1320;48.128;11.592;2023-07-08T00:03:39;10.60;;;7.00;;
2620;SDS011;1320;48.128;11.592;2023-07-08T00:06:07;9.93;;;7.03;;
2620;SDS011;1320;48.128;11.592;2023-07-08T00:08:36;8.70;;;6.53;;
2620;SDS011;1320;48.128;11.592;2023-07-08T00:11:07;8.80;;;6.30;;
2620;SDS011;1320;48.128;11.592;2023-07-08T00:13:35;13.50;;;6.80;;
2620;SDS011;1320;48.128;11.592;2023-07-08T00:16:00;9.63;;;6.37;;
2620;SDS011;1320;48.128;11.592;2023-07-08T00:18:26;9.60;;;6.80;;
2620;SDS011;1320;48.128;11.592;2023-07-08T00:20:52;12.00;;;6.90;;
2620;SDS011;1320;48.128;11.592;2023-07-08T00:23:17;7.20;;;5.40;;
2620;SDS011;1320;48.128;11.592;2023-07-08T00:25:49;9.80;;;6.40;;
2620;SDS011;1320;48.128;11.592;2023-07-08T00:28:15;9.00;;;6.13;;
2620;SDS011;1320;48.128;11.592;2023-07-08T00:30:42;10.30;;;6.90;;
2620;SDS011;1320;48.128;11.592;2023-07-08T00:33:08;10.30;;;6.43;;
2620;SDS011;1320;48.128;11.592;2023-07-08T00:35:35;9.13;;;6.30;;
2620;SDS011;1320;48.128;11.592;2023-07-08T00:38:02;9.93;;;6.20;;
2620;SDS011;1320;48.128;11.592;2023-07-08T00:40:47;11.27;;;7.10;;
2620;SDS011;1320;48.128;11.592;2023-07-08T00:43:15;11.43;;;7.40;;
2620;SDS011;1320;48.128;11.592;2023-07-08T00:45:48;10.13;;;6.67;;
2620;SDS011;1320;48.128;11.592;2023-07-08T00:48:24;10.57;;;6.77;;
2620;SDS011;1320;48.128;11.592;2023-07-08T00:50:53;11.80;;;7.10;;
2620;SDS011;1320;48.128;11.592;2023-07-08T00:53:32;11.53;;;6.43;;
2620;SDS011;1320;48.128;11.592;2023-07-08T00:56:00;10.37;;;6.60;;
2620;SDS011;1320;48.128;11.592;2023-07-08T00:58:30;10.97;;;7.90;;
2620;SDS011;1320;48.128;11.592;2023-07-08T01:01:03;9.10;;;6.80;;
2620;SDS011;1320;48.128;11.592;2023-07-08T01:03:31;9.47;;;5.83;;
2620;SDS011;1320;48.128;11.592;2023-07-08T01:06:05;10.50;;;7.80;;
2620;SDS011;1320;48.128;11.592;2023-07-08T01:08:31;10.63;;;7.03;;
2620;SDS011;1320;48.128;11.592;2023-07-08T01:11:01;12.10;;;7.90;;
2620;SDS011;1320;48.128;11.592;2023-07-08T01:13:30;12.07;;;7.43;;
2620;SDS011;1320;48.128;11.592;2023-07-08T01:16:02;10.80;;;7.00;;
2620;SDS011;1320;48.128;11.592;2023-07-08T01:18:28;14.00;;;7.60;;
2620;SDS011;1320;48.128;11.592;2023-07-08T01:20:55;12.60;;;7.30;;
2620;SDS011;1320;48.128;11.592;2023-07-08T01:23:21;12.43;;;7.63;;
2620;SDS011;1320;48.128;11.592;2023-07-08T01:25:48;11.43;;;8.03;;
2620;SDS011;1320;48.128;11.592;2023-07-08T01:28:14;13.90;;;8.97;;
2620;SDS011;1320;48.128;11.592;2023-07-08T01:30:41;11.70;;;7.70;;
2620;SDS011;1320;48.128;11.592;2023-07-08T01:33:12;12.47;;;7.83;;
2620;SDS011;1320;48.128;11.592;2023-07-08T01:35:43;11.47;;;7.90;;
2620;SDS011;1320;48.128;11.592;2023-07-08T01:38:10;11.87;;;8.13;;
2620;SDS011;1320;48.128;11.592;2023-07-08T01:40:47;12.40;;;8.43;;
2620;SDS011;1320;48.128;11.592;2023-07-08T01:43:16;12.80;;;8.47;;
2620;SDS011;1320;48.128;11.592;2023-07-08T01:45:41;13.80;;;10.30;;
2620;SDS011;1320;48.128;11.592;2023-07-08T01:48:08;11.77;;;8.57;;
2620;SDS011;1320;48.128;11.592;2023-07-08T01:50:38;11.27;;;7.30;;
2620;SDS011;1320;48.128;11.592;2023-07-08T01:53:31;12.60;;;7.63;;
2620;SDS011;1320;48.128;11.592;2023-07-08T01:55:58;12.63;;;7.73;;
2620;SDS011;1320;48.128;11.592;2023-07-08T01:58:24;14.00;;;9.00;;
2620;SDS011;1320;48.128;11.592;2023-07-08T02:00:51;10.47;;;7.57;;
2620;SDS011;1320;48.128;11.592;2023-07-08T02:03:16;11.10;;;7.67;;
2620;SDS011;1320;48.128;11.592;2023-07-08T02:05:42;9.77;;;7.07;;
2620;SDS011;1320;48.128;11.592;2023-07-08T02:08:08;16.07;;;8.33;;
2620;SDS011;1320;48.128;11.592;2023-07-08T02:10:34;18.43;;;9.13;;
2620;SDS011;1320;48.128;11.592;2023-07-08T02:13:00;11.50;;;7.87;;
2620;SDS011;1320;48.128;11.592;2023-07-08T02:15:26;13.90;;;8.90;;
2620;SDS011;1320;48.128;11.592;2023-07-08T02:17:52;12.80;;;8.00;;
2620;SDS011;1320;48.128;11.592;2023-07-08T02:20:17;11.67;;;7.20;;
2620;SDS011;1320;48.128;11.592;2023-07-08T02:22:43;12.40;;;7.70;;
2620;SDS011;1320;48.128;11.592;2023-07-08T02:25:09;13.50;;;7.77;;
2620;SDS011;1320;48.128;11.592;2023-07-08T02:27:35;14.70;;;7.60;;
2620;SDS011;1320;48.128;11.592;2023-07-08T02:30:01;12.57;;;8.27;;
2620;SDS011;1320;48.128;11.592;2023-07-08T02:32:27;14.53;;;8.57;;
2620;SDS011;1320;48.128;11.592;2023-07-08T02:34:53;11.83;;;7.80;;
2620;SDS011;1320;48.128;11.592;2023-07-08T02:37:19;13.73;;;7.77;;
2620;SDS011;1320;48.128;11.592;2023-07-08T02:39:44;10.97;;;7.47;;
2620;SDS011;1320;48.128;11.592;2023-07-08T02:42:10;12.73;;;7.83;;
2620;SDS011;1320;48.128;11.592;2023-07-08T02:44:36;13.03;;;8.13;;
2620;SDS011;1320;48.128;11.592;2023-07-08T02:47:01;11.10;;;8.43;;
2620;SDS011;1320;48.128;11.592;2023-07-08T02:49:27;11.60;;;7.67;;
2620;SDS011;1320;48.128;11.592;2023-07-08T02:51:53;14.20;;;7.97;;
2620;SDS011;1320;48.128;11.592;2023-07-08T02:54:19;11.37;;;7.90;;
2620;SDS011;1320;48.128;11.592;2023-07-08T02:56:44;15.07;;;8.37;;
2620;SDS011;1320;48.128;11.592;2023-07-08T02:59:10;13.13;;;8.40;;
2620;SDS011;1320;48.128;11.592;2023-07-08T03:01:35;11.93;;;7.60;;
2620;SDS011;1320;48.128;11.592;2023-07-08T03:04:10;10.43;;;6.47;;
2620;SDS011;1320;48.128;11.592;2023-07-08T03:06:40;17.90;;;8.60;;
2620;SDS011;1320;48.128;11.592;2023-07-08T03:09:06;11.50;;;7.37;;
2620;SDS011;1320;48.128;11.592;2023-07-08T03:11:32;14.03;;;8.40;;
2620;SDS011;1320;48.128;11.592;2023-07-08T03:13:58;12.07;;;7.53;;
2620;SDS011;1320;48.128;11.592;2023-07-08T03:16:24;12.60;;;7.60;;
2620;SDS011;1320;48.128;11.592;2023-07-08T03:18:49;11.47;;;7.27;;
2620;SDS011;1320;48.128;11.592;2023-07-08T03:21:15;12.30;;;7.70;;
2620;SDS011;1320;48.128;11.592;2023-07-08T03:23:42;11.83;;;7.90;;
2620;SDS011;1320;48.128;11.592;2023-07-08T03:26:11;14.10;;;7.93;;
2620;SDS011;1320;48.128;11.592;2023-07-08T03:28:39;10.37;;;6.80;;
2620;SDS011;1320;48.128;11.592;2023-07-08T03:31:05;11.67;;;8.00;;
2620;SDS011;1320;48.128;11.592;2023-07-08T03:33:34;18.93;;;8.63;;
2620;SDS011;1320;48.128;11.592;2023-07-08T03:36:00;10.30;;;8.00;;
2620;SDS011;1320;48.128;11.592;2023-07-08T03:38:26;12.63;;;8.10;;
2620;SDS011;1320;48.128;11.592;2023-07-08T03:40:52;12.67;;;7.10;;
2620;SDS011;1320;48.128;11.592;2023-07-08T03:43:17;8.80;;;6.43;;
2620;SDS011;1320;48.128;11.592;2023-07-08T03:45:43;10.90;;;6.90;;
2620;SDS011;1320;48.128;11.592;2023-07-08T03:48:12;10.73;;;7.43;;
2620;SDS011;1320;48.128;11.592;2023-07-08T03:50:38;11.30;;;8.17;;
2620;SDS011;1320;48.128;11.592;2023-07-08T03:53:04;11.77;;;7.13;;
2620;SDS011;1320;48.128;11.592;2023-07-08T03:55:30;9.70;;;6.00;;
2620;SDS011;1320;48.128;11.592;2023-07-08T03:57:55;11.20;;;6.57;;
2620;SDS011;1320;48.128;11.592;2023-07-08T04:00:21;9.80;;;6.43;;
2620;SDS011;1320;48.128;11.592;2023-07-08T04:02:47;9.73;;;6.87;;
2620;SDS011;1320;48.128;11.592;2023-07-08T04:05:14;9.60;;;8.07;;
2620;SDS011;1320;48.128;11.592;2023-07-08T04:07:44;10.73;;;7.10;;
2620;SDS011;1320;48.128;11.592;2023-07-08T04:10:10;11.63;;;7.80;;
2620;SDS011;1320;48.128;11.592;2023-07-08T04:12:37;11.47;;;5.93;;
2620;SDS011;1320;48.128;11.592;2023-07-08T04:15:04;11.40;;;7.00;;
2620;SDS011;1320;48.128;11.592;2023-07-08T04:17:30;10.10;;;6.77;;
2620;SDS011;1320;48.128;11.592;2023-07-08T04:19:56;12.67;;;7.10;;
2620;SDS011;1320;48.128;11.592;2023-07-08T04:22:22;11.33;;;7.53;;
2620;SDS011;1320;48.128;11.592;2023-07-08T04:24:48;9.53;;;7.37;;
2620;SDS011;1320;48.128;11.592;2023-07-08T04:27:15;10.10;;;7.80;;
2620;SDS011;1320;48.128;11.592;2023-07-08T04:29:42;10.97;;;8.03;;
2620;SDS011;1320;48.128;11.592;2023-07-08T04:32:08;11.90;;;7.33;;
2620;SDS011;1320;48.128;11.592;2023-07-08T04:34:34;15.80;;;7.90;;
2620;SDS011;1320;48.128;11.592;2023-07-08T04:37:00;12.43;;;7.70;;
2620;SDS011;1320;48.128;11.592;2023-07-08T04:39:26;21.43;;;13.63;;
2620;SDS011;1320;48.128;11.592;2023-07-08T04:41:52;12.77;;;6.90;;
2620;SDS011;1320;48.128;11.592;2023-07-08T04:44:17;10.30;;;7.37;;
2620;SDS011;1320;48.128;11.592;2023-07-08T04:49:12;10.50;;;7.50;;
2620;SDS011;1320;48.128;11.592;2023-07-08T04:51:40;14.33;;;8.20;;
2620;SDS011;1320;48.128;11.592;2023-07-08T04:54:06;13.73;;;8.20;;
2620;SDS011;1320;48.128;11.592;2023-07-08T04:56:39;11.60;;;7.80;;
2620;SDS011;1320;48.128;11.592;2023-07-08T04:59:13;12.47;;;8.50;;
2620;SDS011;1320;48.128;11.592;2023-07-08T05:01:41;12.47;;;7.87;;
2620;SDS011;1320;48.128;11.592;2023-07-08T05:04:07;11.80;;;7.37;;
2620;SDS011;1320;48.128;11.592;2023-07-08T05:06:36;12.17;;;7.67;;
2620;SDS011;1320;48.128;11.592;2023-07-08T05:09:02;10.30;;;7.37;;
2620;SDS011;1320;48.128;11.592;2023-07-08T05:11:28;11.70;;;7.70;;
2620;SDS011;1320;48.128;11.592;2023-07-08T05:13:54;13.33;;;7.80;;
2620;SDS011;1320;48.128;11.592;2023-07-08T05:16:20;12.00;;;9.17;;
2620;SDS011;1320;48.128;11.592;2023-07-08T05:18:46;12.60;;;7.90;;
2620;SDS011;1320;48.128;11.592;2023-07-08T05:21:12;9.67;;;7.37;;
2620;SDS011;1320;48.128;11.592;2023-07-08T05:23:37;13.57;;;7.40;;
2620;SDS011;1320;48.128;11.592;2023-07-08T05:26:04;13.70;;;8.13;;
2620;SDS011;1320;48.128;11.592;2023-07-08T05:28:30;11.50;;;8.33;;
2620;SDS011;1320;48.128;11.592;2023-07-08T05:30:56;14.13;;;8.00;;
2620;SDS011;1320;48.128;11.592;2023-07-08T05:33:26;12.80;;;8.53;;
2620;SDS011;1320;48.128;11.592;2023-07-08T05:35:53;13.30;;;8.07;;
2620;SDS011;1320;48.128;11.592;2023-07-08T05:38:19;13.07;;;8.87;;
2620;SDS011;1320;48.128;11.592;2023-07-08T05:40:49;12.87;;;8.80;;
2620;SDS011;1320;48.128;11.592;2023-07-08T05:43:16;10.97;;;7.60;;
2620;SDS011;1320;48.128;11.592;2023-07-08T05:45:42;12.10;;;8.40;;
2620;SDS011;1320;48.128;11.592;2023-07-08T05:48:08;12.13;;;7.70;;
2620;SDS011;1320;48.128;11.592;2023-07-08T05:50:35;10.17;;;7.20;;
2620;SDS011;1320;48.128;11.592;2023-07-08T05:53:00;12.67;;;8.50;;
2620;SDS011;1320;48.128;11.592;2023-07-08T05:55:26;13.97;;;8.40;;
2620;SDS011;1320;48.128;11.592;2023-07-08T05:57:51;12.73;;;8.00;;
2620;SDS011;1320;48.128;11.592;2023-07-08T06:00:17;11.47;;;9.10;;
2620;SDS011;1320;48.128;11.592;2023-07-08T06:02:43;10.43;;;7.50;;
2620;SDS011;1320;48.128;11.592;2023-07-08T06:05:08;10.80;;;7.90;;
2620;SDS011;1320;48.128;11.592;2023-07-08T06:07:34;12.27;;;7.70;;
2620;SDS011;1320;48.128;11.592;2023-07-08T06:10:00;12.37;;;7.67;;
2620;SDS011;1320;48.128;11.592;2023-07-08T06:12:26;14.20;;;8.57;;
2620;SDS011;1320;48.128;11.592;2023-07-08T06:14:52;12.77;;;8.00;;
2620;SDS011;1320;48.128;11.592;2023-07-08T06:17:18;10.87;;;7.87;;
2620;SDS011;1320;48.128;11.592;2023-07-08T06:19:45;12.70;;;8.73;;
2620;SDS011;1320;48.128;11.592;2023-07-08T06:22:10;15.70;;;8.83;;
2620;SDS011;1320;48.128;11.592;2023-07-08T06:24:37;10.73;;;7.93;;
2620;SDS011;1320;48.128;11.592;2023-07-08T06:27:03;14.07;;;7.47;;
2620;SDS011;1320;48.128;11.592;2023-07-08T06:29:29;10.50;;;7.83;;
2620;SDS011;1320;48.128;11.592;2023-07-08T06:31:54;12.30;;;8.70;;
2620;SDS011;1320;48.128;11.592;2023-07-08T06:34:20;11.70;;;7.53;;
2620;SDS011;1320;48.128;11.592;2023-07-08T06:36:48;10.50;;;7.50;;
2620;SDS011;1320;48.128;11.592;2023-07-08T06:39:14;13.80;;;9.17;;
2620;SDS011;1320;48.128;11.592;2023-07-08T06:41:39;9.70;;;7.63;;
2620;SDS011;1320;48.128;11.592;2023-07-08T06:44:05;11.23;;;7.70;;
2620;SDS011;1320;48.128;11.592;2023-07-08T06:46:31;11.40;;;9.00;;
2620;SDS011;1320;48.128;11.592;2023-07-08T06:48:56;12.10;;;8.77;;
2620;SDS011;1320;48.128;11.592;2023-07-08T06:51:22;14.33;;;8.73;;
2620;SDS011;1320;48.128;11.592;2023-07-08T06:53:48;11.23;;;8.30;;
2620;SDS011;1320;48.128;11.592;2023-07-08T06:56:13;11.57;;;8.70;;
2620;SDS011;1320;48.128;11.592;2023-07-08T06:58:39;12.47;;;7.23;;
2620;SDS011;1320;48.128;11.592;2023-07-08T07:01:04;12.63;;;8.53;;
2620;SDS011;1320;48.128;11.592;2023-07-08T07:03:30;10.67;;;8.20;;
2620;SDS011;1320;48.128;11.592;2023-07-08T07:05:56;11.63;;;7.97;;
2620;SDS011;1320;48.128;11.592;2023-07-08T07:08:21;10.50;;;7.90;;
2620;SDS011;1320;48.128;11.592;2023-07-08T07:10:47;10.23;;;7.70;;
2620;SDS011;1320;48.128;11.592;2023-07-08T07:13:13;12.17;;;8.30;;
2620;SDS011;1320;48.128;11.592;2023-07-08T07:15:38;13.30;;;9.50;;
2620;SDS011;1320;48.128;11.592;2023-07-08T07:18:04;11.83;;;7.60;;
2620;SDS011;1320;48.128;11.592;2023-07-08T07:20:30;11.33;;;7.43;;
2620;SDS011;1320;48.128;11.592;2023-07-08T07:22:56;11.90;;;8.47;;
2620;SDS011;1320;48.128;11.592;2023-07-08T07:25:22;12.13;;;7.20;;
2620;SDS011;1320;48.128;11.592;2023-07-08T07:27:47;10.80;;;7.73;;
2620;SDS011;1320;48.128;11.592;2023-07-08T07:30:13;16.73;;;8.30;;
2620;SDS011;1320;48.128;11.592;2023-07-08T07:32:42;12.43;;;8.40;;
2620;SDS011;1320;48.128;11.592;2023-07-08T07:35:09;17.27;;;9.47;;
2620;SDS011;1320;48.128;11.592;2023-07-08T07:37:45;12.87;;;8.57;;
2620;SDS011;1320;48.128;11.592;2023-07-08T07:40:14;14.53;;;8.67;;
2620;SDS011;1320;48.128;11.592;2023-07-08T07:42:40;12.53;;;8.43;;
2620;SDS011;1320;48.128;11.592;2023-07-08T07:45:08;11.60;;;8.40;;
2620;SDS011;1320;48.128;11.592;2023-07-08T07:47:36;12.83;;;8.20;;
2620;SDS011;1320;48.128;11.592;2023-07-08T07:50:06;12.20;;;7.80;;
2620;SDS011;1320;48.128;11.592;2023-07-08T07:52:33;11.37;;;8.33;;
2620;SDS011;1320;48.128;11.592;2023-07-08T07:54:59;14.50;;;8.43;;
2620;SDS011;1320;48.128;11.592;2023-07-08T07:57:25;11.27;;;7.37;;
2620;SDS011;1320;48.128;11.592;2023-07-08T07:59:51;11.63;;;7.53;;
2620;SDS011;1320;48.128;11.592;2023-07-08T08:02:17;12.70;;;8.83;;
2620;SDS011;1320;48.128;11.592;2023-07-08T08:04:44;12.53;;;7.80;;
2620;SDS011;1320;48.128;11.592;2023-07-08T08:07:09;13.13;;;8.37;;
2620;SDS011;1320;48.128;11.592;2023-07-08T08:09:35;12.73;;;7.90;;
2620;SDS011;1320;48.128;11.592;2023-07-08T08:12:02;11.43;;;8.17;;
2620;SDS011;1320;48.128;11.592;2023-07-08T08:14:28;12.17;;;8.00;;
2620;SDS011;1320;48.128;11.592;2023-07-08T08:16:54;14.57;;;7.90;;
2620;SDS011;1320;48.128;11.592;2023-07-08T08:19:20;12.33;;;8.50;;
2620;SDS011;1320;48.128;11.592;2023-07-08T08:21:46;12.90;;;8.80;;
2620;SDS011;1320;48.128;11.592;2023-07-08T08:24:11;10.43;;;6.97;;
2620;SDS011;1320;48.128;11.592;2023-07-08T08:26:37;10.57;;;7.93;;
2620;SDS011;1320;48.128;11.592;2023-07-08T08:29:02;11.27;;;8.83;;
2620;SDS011;1320;48.128;11.592;2023-07-08T08:31:28;10.80;;;8.27;;
2620;SDS011;1320;48.128;11.592;2023-07-08T08:33:56;10.07;;;7.10;;
2620;SDS011;1320;48.128;11.592;2023-07-08T08:36:21;11.43;;;8.37;;
2620;SDS011;1320;48.128;11.592;2023-07-08T08:38:47;12.90;;;8.33;;
2620;SDS011;1320;48.128;11.592;2023-07-08T08:41:14;13.10;;;8.50;;
2620;SDS011;1320;48.128;11.592;2023-07-08T08:43:42;12.17;;;8.53;;
2620;SDS011;1320;48.128;11.592;2023-07-08T08:51:38;14.37;;;7.50;;
2620;SDS011;1320;48.128;11.592;2023-07-08T08:54:05;11.97;;;8.80;;
2620;SDS011;1320;48.128;11.592;2023-07-08T08:59:40;12.70;;;7.80;;
2620;SDS011;1320;48.128;11.592;2023-07-08T09:05:08;12.97;;;8.30;;
2620;SDS011;1320;48.128;11.592;2023-07-08T09:13:16;10.60;;;7.87;;
2620;SDS011;1320;48.128;11.592;2023-07-08T09:15:48;11.77;;;8.17;;
2620;SDS011;1320;48.128;11.592;2023-07-08T09:18:25;12.30;;;7.93;;
2620;SDS011;1320;48.128;11.592;2023-07-08T09:20:57;11.90;;;7.10;;
2620;SDS011;1320;48.128;11.592;2023-07-08T09:23:29;11.80;;;8.00;;
2620;SDS011;1320;48.128;11.592;2023-07-08T09:25:59;10.40;;;7.93;;
2620;SDS011;1320;48.128;11.592;2023-07-08T09:28:39;9.03;;;7.43;;
2620;SDS011;1320;48.128;11.592;2023-07-08T09:31:07;12.37;;;8.30;;
2620;SDS011;1320;48.128;11.592;2023-07-08T09:33:41;11.00;;;7.10;;
2620;SDS011;1320;48.128;11.592;2023-07-08T09:36:15;10.20;;;7.40;;
2620;SDS011;1320;48.128;11.592;2023-07-08T09:38:43;9.03;;;7.13;;
2620;SDS011;1320;48.128;11.592;2023-07-08T09:41:13;11.13;;;7.37;;
2620;SDS011;1320;48.128;11.592;2023-07-08T09:43:42;9.73;;;6.60;;
2620;SDS011;1320;48.128;11.592;2023-07-08T09:46:11;9.53;;;7.00;;
2620;SDS011;1320;48.128;11.592;2023-07-08T09:48:37;10.20;;;7.33;;
2620;SDS011;1320;48.128;11.592;2023-07-08T09:51:03;11.60;;;8.93;;
2620;SDS011;1320;48.128;11.592;2023-07-08T09:53:30;10.77;;;7.57;;
2620;SDS011;1320;48.128;11.592;2023-07-08T09:55:56;8.80;;;6.27;;
2620;SDS011;1320;48.128;11.592;2023-07-08T09:58:34;9.20;;;6.47;;
2620;SDS011;1320;48.128;11.592;2023-07-08T10:01:08;8.83;;;7.00;;
2620;SDS011;1320;48.128;11.592;2023-07-08T10:03:42;8.47;;;6.73;;
2620;SDS011;1320;48.128;11.592;2023-07-08T10:06:18;13.07;;;11.10;;
2620;SDS011;1320;48.128;11.592;2023-07-08T10:08:49;8.40;;;6.80;;
2620;SDS011;1320;48.128;11.592;2023-07-08T10:11:26;9.07;;;7.43;;
2620;SDS011;1320;48.128;11.592;2023-07-08T10:13:59;9.63;;;7.00;;
2620;SDS011;1320;48.128;11.592;2023-07-08T10:16:38;15.40;;;7.20;;
2620;SDS011;1320;48.128;11.592;2023-07-08T10:19:13;9.17;;;6.33;;
2620;SDS011;1320;48.128;11.592;2023-07-08T10:21:51;9.80;;;6.70;;
2620;SDS011;1320;48.128;11.592;2023-07-08T10:24:50;8.60;;;7.07;;
2620;SDS011;1320;48.128;11.592;2023-07-08T10:27:45;9.27;;;5.47;;
2620;SDS011;1320;48.128;11.592;2023-07-08T10:30:20;8.73;;;6.40;;
2620;SDS011;1320;48.128;11.592;2023-07-08T10:35:34;8.00;;;6.03;;
2620;SDS011;1320;48.128;11.592;2023-07-08T10:54:18;9.63;;;6.00;;
2620;SDS011;1320;48.128;11.592;2023-07-08T10:57:06;10.07;;;5.70;;
2620;SDS011;1320;48.128;11.592;2023-07-08T11:05:31;9.33;;;5.87;;
2620;SDS011;1320;48.128;11.592;2023-07-08T11:10:43;9.83;;;6.47;;
2620;SDS011;1320;48.128;11.592;2023-07-08T11:13:18;7.70;;;5.83;;
2620;SDS011;1320;48.128;11.592;2023-07-08T11:15:47;8.13;;;6.03;;
2620;SDS011;1320;48.128;11.592;2023-07-08T11:21:10;13.37;;;7.70;;
2620;SDS011;1320;48.128;11.592;2023-07-08T11:23:45;8.53;;;5.80;;
2620;SDS011;1320;48.128;11.592;2023-07-08T11:29:13;8.40;;;5.97;;
2620;SDS011;1320;48.128;11.592;2023-07-08T11:31:43;10.17;;;5.80;;
2620;SDS011;1320;48.128;11.592;2023-07-08T11:34:11;8.33;;;6.53;;
2620;SDS011;1320;48.128;11.592;2023-07-08T11:36:38;7.17;;;6.13;;
2620;SDS011;1320;48.128;11.592;2023-07-08T11:39:05;9.93;;;7.23;;
2620;SDS011;1320;48.128;11.592;2023-07-08T11:41:52;7.57;;;6.00;;
2620;SDS011;1320;48.128;11.592;2023-07-08T11:44:28;7.90;;;6.30;;
2620;SDS011;1320;48.128;11.592;2023-07-08T11:46:54;10.70;;;7.40;;
2620;SDS011;1320;48.128;11.592;2023-07-08T11:49:27;8.50;;;6.43;;
2620;SDS011;1320;48.128;11.592;2023-07-08T11:51:53;8.10;;;6.40;;
2620;SDS011;1320;48.128;11.592;2023-07-08T11:54:28;8.67;;;6.83;;
2620;SDS011;1320;48.128;11.592;2023-07-08T11:57:05;8.53;;;6.27;;
2620;SDS011;1320;48.128;11.592;2023-07-08T11:59:37;8.27;;;5.80;;
2620;SDS011;1320;48.128;11.592;2023-07-08T12:02:12;11.60;;;7.33;;
2620;SDS011;1320;48.128;11.592;2023-07-08T12:04:59;8.93;;;6.37;;
2620;SDS011;1320;48.128;11.592;2023-07-08T12:07:42;8.00;;;6.17;;
2620;SDS011;1320;48.128;11.592;2023-07-08T12:10:18;9.13;;;5.80;;
2620;SDS011;1320;48.128;11.592;2023-07-08T12:12:51;7.97;;;6.30;;
2620;SDS011;1320;48.128;11.592;2023-07-08T12:17:49;10.57;;;6.33;;
2620;SDS011;1320;48.128;11.592;2023-07-08T12:20:22;11.00;;;7.03;;
2620;SDS011;1320;48.128;11.592;2023-07-08T12:22:53;10.83;;;6.27;;
2620;SDS011;1320;48.128;11.592;2023-07-08T12:25:22;12.43;;;7.37;;
2620;SDS011;1320;48.128;11.592;2023-07-08T12:27:52;9.63;;;7.03;;
2620;SDS011;1320;48.128;11.592;2023-07-08T12:30:17;8.43;;;6.83;;
2620;SDS011;1320;48.128;11.592;2023-07-08T12:32:44;8.53;;;6.43;;
2620;SDS011;1320;48.128;11.592;2023-07-08T12:35:17;12.60;;;6.10;;
2620;SDS011;1320;48.128;11.592;2023-07-08T12:37:53;8.13;;;5.83;;
2620;SDS011;1320;48.128;11.592;2023-07-08T12:40:22;7.50;;;6.03;;
2620;SDS011;1320;48.128;11.592;2023-07-08T12:42:49;7.93;;;6.90;;
2620;SDS011;1320;48.128;11.592;2023-07-08T12:45:17;8.80;;;6.50;;
2620;SDS011;1320;48.128;11.592;2023-07-08T12:47:46;9.60;;;5.93;;
2620;SDS011;1320;48.128;11.592;2023-07-08T12:50:12;8.60;;;6.07;;
2620;SDS011;1320;48.128;11.592;2023-07-08T12:52:39;11.90;;;6.40;;
2620;SDS011;1320;48.128;11.592;2023-07-08T12:55:08;12.40;;;7.00;;
2620;SDS011;1320;48.128;11.592;2023-07-08T12:57:34;9.07;;;6.60;;
2620;SDS011;1320;48.128;11.592;2023-07-08T13:00:00;9.83;;;7.30;;
2620;SDS011;1320;48.128;11.592;2023-07-08T13:02:27;7.90;;;6.30;;
2620;SDS011;1320;48.128;11.592;2023-07-08T13:04:56;7.67;;;5.60;;
2620;SDS011;1320;48.128;11.592;2023-07-08T13:07:31;9.10;;;6.00;;
2620;SDS011;1320;48.128;11.592;2023-07-08T13:09:58;8.33;;;6.10;;
2620;SDS011;1320;48.128;11.592;2023-07-08T13:12:25;9.03;;;6.73;;
2620;SDS011;1320;48.128;11.592;2023-07-08T13:14:52;14.17;;;10.10;;
2620;SDS011;1320;48.128;11.592;2023-07-08T13:17:19;70.40;;;48.87;;
2620;SDS011;1320;48.128;11.592;2023-07-08T13:19:45;45.13;;;33.03;;
2620;SDS011;1320;48.128;11.592;2023-07-08T13:22:15;29.80;;;22.30;;
2620;SDS011;1320;48.128;11.592;2023-07-08T13:24:43;55.47;;;36.00;;
2620;SDS011;1320;48.128;11.592;2023-07-08T13:27:13;34.33;;;22.40;;
2620;SDS011;1320;48.128;11.592;2023-07-08T13:29:44;11.50;;;8.80;;
2620;SDS011;1320;48.128;11.592;2023-07-08T13:32:10;8.90;;;6.80;;
2620;SDS011;1320;48.128;11.592;2023-07-08T13:34:36;9.53;;;6.40;;
2620;SDS011;1320;48.128;11.592;2023-07-08T13:37:03;8.10;;;6.67;;
2620;SDS011;1320;48.128;11.592;2023-07-08T13:39:37;8.80;;;5.27;;
2620;SDS011;1320;48.128;11.592;2023-07-08T13:42:03;7.90;;;5.57;;
2620;SDS011;1320;48.128;11.592;2023-07-08T13:44:32;8.57;;;5.43;;
2620;SDS011;1320;48.128;11.592;2023-07-08T13:46:59;9.67;;;6.30;;
2620;SDS011;1320;48.128;11.592;2023-07-08T13:49:29;7.50;;;6.10;;
2620;SDS011;1320;48.128;11.592;2023-07-08T13:54:38;10.27;;;6.10;;
2620;SDS011;1320;48.128;11.592;2023-07-08T13:57:11;9.03;;;6.40;;
2620;SDS011;1320;48.128;11.592;2023-07-08T13:59:39;7.40;;;5.20;;
2620;SDS011;1320;48.128;11.592;2023-07-08T14:02:13;8.10;;;6.30;;
2620;SDS011;1320;48.128;11.592;2023-07-08T14:04:41;8.30;;;6.43;;
2620;SDS011;1320;48.128;11.592;2023-07-08T14:07:17;8.73;;;6.73;;
2620;SDS011;1320;48.128;11.592;2023-07-08T14:09:44;8.20;;;6.30;;
2620;SDS011;1320;48.128;11.592;2023-07-08T14:12:10;14.30;;;6.53;;
2620;SDS011;1320;48.128;11.592;2023-07-08T14:14:36;8.30;;;6.30;;
2620;SDS011;1320;48.128;11.592;2023-07-08T14:17:01;8.80;;;5.90;;
2620;SDS011;1320;48.128;11.592;2023-07-08T14:19:28;8.63;;;6.30;;
2620;SDS011;1320;48.128;11.592;2023-07-08T14:21:56;12.60;;;6.53;;
2620;SDS011;1320;48.128;11.592;2023-07-08T14:24:24;7.97;;;6.80;;
2620;SDS011;1320;48.128;11.592;2023-07-08T14:26:50;9.60;;;5.87;;
2620;SDS011;1320;48.128;11.592;2023-07-08T14:29:17;6.70;;;5.90;;
2620;SDS011;1320;48.128;11.592;2023-07-08T14:31:42;8.50;;;6.10;;
2620;SDS011;1320;48.128;11.592;2023-07-08T14:34:12;8.10;;;6.13;;
2620;SDS011;1320;48.128;11.592;2023-07-08T14:36:46;8.67;;;5.80;;
2620;SDS011;1320;48.128;11.592;2023-07-08T14:39:13;6.90;;;5.47;;
2620;SDS011;1320;48.128;11.592;2023-07-08T14:41:40;9.10;;;5.90;;
2620;SDS011;1320;48.128;11.592;2023-07-08T14:47:14;8.87;;;5.67;;
2620;SDS011;1320;48.128;11.592;2023-07-08T14:49:42;9.67;;;7.30;;
2620;SDS011;1320;48.128;11.592;2023-07-08T14:52:08;11.20;;;8.07;;
2620;SDS011;1320;48.128;11.592;2023-07-08T14:54:34;7.00;;;5.83;;
2620;SDS011;1320;48.128;11.592;2023-07-08T14:57:00;7.67;;;6.17;;
2620;SDS011;1320;48.128;11.592;2023-07-08T14:59:28;7.30;;;6.00;;
2620;SDS011;1320;48.128;11.592;2023-07-08T15:01:56;12.97;;;7.50;;
2620;SDS011;1320;48.128;11.592;2023-07-08T15:04:23;8.57;;;6.50;;
2620;SDS011;1320;48.128;11.592;2023-07-08T15:06:49;8.77;;;6.50;;
2620;SDS011;1320;48.128;11.592;2023-07-08T15:09:18;6.90;;;5.20;;
2620;SDS011;1320;48.128;11.592;2023-07-08T15:11:44;9.53;;;5.47;;
2620;SDS011;1320;48.128;11.592;2023-07-08T15:14:20;7.70;;;6.00;;
2620;SDS011;1320;48.128;11.592;2023-07-08T15:16:48;9.70;;;5.40;;
2620;SDS011;1320;48.128;11.592;2023-07-08T15:19:15;7.80;;;5.80;;
2620;SDS011;1320;48.128;11.592;2023-07-08T15:21:41;8.10;;;6.40;;
2620;SDS011;1320;48.128;11.592;2023-07-08T15:24:08;12.83;;;5.50;;
2620;SDS011;1320;48.128;11.592;2023-07-08T15:26:36;10.43;;;6.60;;
2620;SDS011;1320;48.128;11.592;2023-07-08T15:29:06;9.33;;;5.97;;
2620;SDS011;1320;48.128;11.592;2023-07-08T15:31:38;9.67;;;6.37;;
2620;SDS011;1320;48.128;11.592;2023-07-08T15:34:07;7.90;;;5.63;;
2620;SDS011;1320;48.128;11.592;2023-07-08T15:36:38;6.50;;;4.70;;
2620;SDS011;1320;48.128;11.592;2023-07-08T15:39:03;6.70;;;4.87;;
2620;SDS011;1320;48.128;11.592;2023-07-08T15:41:29;9.13;;;5.00;;
2620;SDS011;1320;48.128;11.592;2023-07-08T15:43:56;9.83;;;4.70;;
2620;SDS011;1320;48.128;11.592;2023-07-08T15:46:22;6.67;;;4.23;;
2620;SDS011;1320;48.128;11.592;2023-07-08T15:48:56;8.10;;;4.90;;
2620;SDS011;1320;48.128;11.592;2023-07-08T15:51:22;7.67;;;4.80;;
2620;SDS011;1320;48.128;11.592;2023-07-08T15:53:48;7.80;;;4.70;;
2620;SDS011;1320;48.128;11.592;2023-07-08T15:56:15;7.73;;;5.17;;
2620;SDS011;1320;48.128;11.592;2023-07-08T15:58:43;6.90;;;5.00;;
2620;SDS011;1320;48.128;11.592;2023-07-08T16:01:13;5.70;;;3.70;;